Time;durP1;ratioP1;P1;durP2;ratioP2;P2;SDS_P1;SDS_P2;PMS_P1;PMS_P2;Temp;Humidity;BMP_temperature;BMP_pressure;BME280_temperature;BME280_humidity;BME280_pressure;Samples;Min_cycle;Max_cycle;Signal;HPM_P1;HPM_P2
2022/06/11 00:01:43;;;;;;;10.52;4.57;;;;;;;16.03;92.11;101932.09;5278609;28;20336;-76
2022/06/11 00:04:19;;;;;;;12.10;4.90;;;;;;;15.95;92.40;101926.97;5278462;28;20107;-75
2022/06/11 00:06:55;;;;;;;9.90;4.78;;;;;;;15.97;92.09;101925.22;5277986;28;20132;-75
2022/06/11 00:09:27;;;;;;;12.70;5.00;;;;;;;15.91;92.24;101933.19;5278238;28;20036;-76
2022/06/11 00:11:59;;;;;;;8.50;4.45;;;;;;;15.90;92.26;101926.19;5277790;28;20025;-75
2022/06/11 00:14:32;;;;;;;10.87;5.03;;;;;;;15.90;92.20;101934.09;5278054;28;20389;-78
2022/06/11 00:17:05;;;;;;;10.07;4.43;;;;;;;15.94;92.11;101932.25;5277785;28;20064;-77
2022/06/11 00:19:38;;;;;;;10.50;4.72;;;;;;;15.94;92.65;101934.88;5278497;28;20040;-75
2022/06/11 00:22:11;;;;;;;8.75;4.28;;;;;;;15.90;92.58;101934.09;5278681;28;20323;-78
2022/06/11 00:24:42;;;;;;;7.60;4.35;;;;;;;15.76;92.36;101933.41;5278017;28;20393;-75
2022/06/11 00:27:15;;;;;;;10.32;4.88;;;;;;;15.80;92.73;101927.25;5258964;28;20029;-81
2022/06/11 00:29:46;;;;;;;8.43;4.78;;;;;;;15.72;92.91;101929.09;5278087;28;20100;-80
2022/06/11 00:32:18;;;;;;;10.90;4.43;;;;;;;15.64;93.45;101927.44;5277853;28;20107;-75
2022/06/11 00:34:50;;;;;;;7.45;4.50;;;;;;;15.59;93.76;101929.28;5277947;28;20202;-77
2022/06/11 00:37:21;;;;;;;9.30;5.33;;;;;;;15.60;93.91;101924.88;5277670;28;20032;-79
2022/06/11 00:39:52;;;;;;;9.03;4.80;;;;;;;15.61;93.97;101929.25;5277508;28;20024;-83
2022/06/11 00:42:27;;;;;;;8.87;4.37;;;;;;;15.65;93.97;101923.09;5259670;28;20064;-74
2022/06/11 00:45:16;;;;;;;13.00;5.22;;;;;;;15.58;94.01;101931.94;5278076;28;20470;-74
2022/06/11 00:47:55;;;;;;;12.73;4.80;;;;;;;15.65;94.50;101925.72;5277854;28;20044;-75
2022/06/11 00:50:39;;;;;;;10.10;4.40;;;;;;;15.41;94.74;101916.44;5279722;28;20583;-75
2022/06/11 00:53:32;;;;;;;10.10;5.30;;;;;;;15.46;94.49;101910.22;5277703;28;20027;-75
2022/06/11 00:56:10;;;;;;;9.23;4.97;;;;;;;15.37;95.07;101918.22;5276950;28;20024;-74
2022/06/11 00:58:45;;;;;;;10.60;4.60;;;;;;;15.37;94.90;101922.63;5277088;28;20037;-75
2022/06/11 01:01:19;;;;;;;8.52;4.90;;;;;;;15.51;95.10;101920.66;5276751;28;20028;-74
2022/06/11 01:03:59;;;;;;;10.85;5.20;;;;;;;15.29;95.47;101922.72;5277022;28;20112;-77
2022/06/11 01:06:53;;;;;;;14.13;6.15;;;;;;;15.40;95.72;101919.94;5276935;28;20029;-75
2022/06/11 01:09:31;;;;;;;9.27;5.57;;;;;;;15.26;95.38;101918.41;5277149;28;20075;-76
2022/06/11 01:12:26;;;;;;;10.82;5.88;;;;;;;15.27;95.83;101920.13;5277010;28;20090;-78
2022/06/11 01:15:18;;;;;;;8.05;5.45;;;;;;;15.31;95.84;101913.06;5276967;28;20041;-75
2022/06/11 01:18:14;;;;;;;11.25;5.65;;;;;;;15.24;96.54;101912.28;5276876;28;20051;-78
2022/06/11 01:21:16;;;;;;;10.00;5.70;;;;;;;15.17;96.77;101915.03;5276903;28;20033;-82
2022/06/11 01:24:08;;;;;;;11.60;5.28;;;;;;;15.17;97.11;101909.78;5276469;28;20032;-75
2022/06/11 01:27:16;;;;;;;10.93;5.80;;;;;;;15.15;97.29;101917.69;5276749;28;20044;-79
2022/06/11 01:30:05;;;;;;;11.10;5.53;;;;;;;15.10;97.54;101916.84;5276162;28;20055;-74
2022/06/11 01:33:01;;;;;;;10.35;5.53;;;;;;;15.08;97.83;101919.50;5276221;28;20079;-74
2022/06/11 01:35:42;;;;;;;10.60;5.80;;;;;;;15.09;98.33;101912.50;5276346;28;20059;-79
2022/06/11 01:38:35;;;;;;;11.50;6.13;;;;;;;15.08;98.20;101908.13;5276509;28;20043;-74
2022/06/11 01:41:19;;;;;;;11.38;6.13;;;;;;;15.11;98.01;101908.09;5275662;28;20507;-75
2022/06/11 01:43:54;;;;;;;9.57;5.78;;;;;;;15.02;98.18;101905.59;5275721;28;20052;-81
2022/06/11 01:46:31;;;;;;;11.32;5.40;;;;;;;14.99;98.46;101909.13;5275681;28;20033;-75
2022/06/11 01:49:24;;;;;;;8.65;6.10;;;;;;;14.98;98.70;101903.91;5275789;28;20448;-79
2022/06/11 01:52:17;;;;;;;10.52;5.45;;;;;;;14.98;98.91;101901.28;5274827;28;20036;-77
2022/06/11 01:55:07;;;;;;;14.43;5.70;;;;;;;14.97;98.97;101905.66;5276027;28;20167;-75
2022/06/11 01:58:15;;;;;;;12.15;5.95;;;;;;;14.90;99.06;101896.97;5275303;28;20828;-76
2022/06/11 02:00:54;;;;;;;9.65;6.43;;;;;;;14.85;99.36;101904.06;5275602;28;20479;-77
2022/06/11 02:03:41;;;;;;;9.65;5.72;;;;;;;14.87;99.40;101906.66;5275910;28;20032;-78
2022/06/11 02:06:24;;;;;;;9.57;5.20;;;;;;;14.80;99.20;101902.41;5275388;28;20093;-75
2022/06/11 02:09:49;;;;;;;9.35;5.07;;;;;;;14.81;99.34;101902.38;5275189;28;20385;-76
2022/06/11 02:12:51;;;;;;;9.85;5.18;;;;;;;14.76;99.07;101904.16;5189616;28;20069;-76
2022/06/11 02:15:29;;;;;;;11.57;5.22;;;;;;;14.79;99.36;101903.28;5190098;28;20038;-79
2022/06/11 02:18:06;;;;;;;7.93;5.22;;;;;;;14.73;99.78;101905.09;5189740;28;20519;-75
2022/06/11 02:20:49;;;;;;;10.55;5.25;;;;;;;14.66;99.64;101905.16;5189861;28;20053;-75
2022/06/11 02:23:43;;;;;;;7.78;4.85;;;;;;;14.66;99.85;101905.16;5190133;28;20042;-75
2022/06/11 02:26:22;;;;;;;10.05;5.78;;;;;;;14.60;100.00;101908.72;5189804;28;20073;-76
2022/06/11 02:28:56;;;;;;;9.63;5.40;;;;;;;14.58;100.00;101911.31;5189822;28;20037;-77
2022/06/11 02:31:32;;;;;;;8.40;5.88;;;;;;;14.56;100.00;101913.09;5190263;28;20030;-75
2022/06/11 02:34:06;;;;;;;13.05;5.70;;;;;;;14.52;100.00;101914.06;5190751;28;20034;-77
2022/06/11 02:36:54;;;;;;;6.53;4.43;;;;;;;14.58;100.00;101926.22;5190060;28;20042;-75
2022/06/11 02:39:29;;;;;;;10.35;5.63;;;;;;;14.50;99.98;101921.03;5189672;28;20046;-77
2022/06/11 02:42:07;;;;;;;8.30;4.75;;;;;;;14.56;100.00;101925.38;5204939;28;20440;-75
2022/06/11 02:44:38;;;;;;;9.15;4.93;;;;;;;14.55;100.00;101924.50;5274752;28;20032;-74
2022/06/11 02:47:11;;;;;;;9.80;5.03;;;;;;;14.45;100.00;101929.88;5275227;28;20043;-74
2022/06/11 02:49:43;;;;;;;10.50;5.07;;;;;;;14.41;100.00;101936.91;5274488;28;20125;-75
2022/06/11 02:52:20;;;;;;;9.07;5.40;;;;;;;14.48;100.00;101935.09;5275104;28;20103;-79
2022/06/11 02:54:52;;;;;;;6.88;4.80;;;;;;;14.41;100.00;101937.75;5274690;28;20540;-75
2022/06/11 02:57:27;;;;;;;9.00;5.10;;;;;;;14.40;100.00;101941.25;5278078;28;20068;-76
2022/06/11 02:59:58;;;;;;;7.65;4.75;;;;;;;14.36;100.00;101936.94;5277174;28;20477;-79
2022/06/11 03:02:31;;;;;;;6.17;4.30;;;;;;;14.42;100.00;101938.63;5274811;28;20052;-76
2022/06/11 03:05:03;;;;;;;;;;;;;;;14.41;99.79;101943.00;5275279;28;20066;-75
2022/06/11 03:07:34;;;;;;;9.90;4.47;;;;;;;14.51;100.00;101942.94;5274352;28;20021;-74
2022/06/11 03:10:06;;;;;;;9.20;5.00;;;;;;;14.48;100.00;101942.97;5274706;28;20064;-74
2022/06/11 03:12:38;;;;;;;5.93;4.50;;;;;;;14.63;100.00;101939.31;5274419;28;20032;-77
2022/06/11 03:15:11;;;;;;;6.43;4.40;;;;;;;14.58;100.00;101942.81;5274405;28;20482;-77
2022/06/11 03:17:45;;;;;;;6.88;4.43;;;;;;;14.59;99.77;101944.59;5274133;28;20056;-82
2022/06/11 03:20:19;;;;;;;7.80;4.82;;;;;;;14.71;99.65;101946.22;5274894;28;20104;-74
2022/06/11 03:22:51;;;;;;;8.65;4.50;;;;;;;14.67;99.25;101941.91;5274696;28;20032;-75
2022/06/11 03:25:22;;;;;;;9.60;5.77;;;;;;;14.76;99.01;101946.16;5274498;28;20028;-74
2022/06/11 03:27:54;;;;;;;7.67;4.90;;;;;;;14.89;99.03;101952.13;5274615;28;20051;-76
2022/06/11 03:30:26;;;;;;;8.43;4.55;;;;;;;14.80;98.55;101949.63;5274413;28;20093;-76
2022/06/11 03:32:58;;;;;;;10.25;4.80;;;;;;;14.85;98.45;101955.69;5274539;28;20029;-77
2022/06/11 03:35:29;;;;;;;6.93;4.83;;;;;;;14.88;98.19;101955.66;5274155;28;20024;-76
2022/06/11 03:38:01;;;;;;;8.27;4.10;;;;;;;15.06;98.30;101957.19;5274395;28;20032;-79
2022/06/11 03:40:34;;;;;;;7.30;4.40;;;;;;;15.01;97.75;101956.38;5274190;28;20263;-75
2022/06/11 03:43:06;;;;;;;5.43;4.25;;;;;;;15.02;97.52;101963.34;5274260;28;20418;-74
2022/06/11 03:45:37;;;;;;;7.38;4.18;;;;;;;15.17;97.73;101962.31;5255594;28;20045;-75
2022/06/11 03:48:10;;;;;;;9.00;4.63;;;;;;;15.07;96.97;101969.41;5274419;28;20082;-76
2022/06/11 03:50:41;;;;;;;8.77;4.45;;;;;;;15.11;96.70;101979.00;5256635;28;20497;-74
2022/06/11 03:53:13;;;;;;;12.40;4.43;;;;;;;15.07;96.35;101980.81;5274367;28;20135;-75
2022/06/11 03:55:44;;;;;;;9.13;5.37;;;;;;;15.17;96.63;101985.94;5274320;28;20024;-74
2022/06/11 03:58:18;;;;;;;8.63;4.60;;;;;;;15.10;96.47;101990.38;5274006;28;20110;-75
2022/06/11 04:03:42;;;;;;;7.07;4.70;;;;;;;15.13;96.07;101996.50;5277745;28;20062;-74
2022/06/11 04:06:15;;;;;;;6.75;4.45;;;;;;;15.26;96.64;102002.47;5277639;28;20024;-76
2022/06/11 04:08:47;;;;;;;6.93;4.22;;;;;;;15.22;95.96;101992.00;5277996;28;20039;-75
2022/06/11 04:11:19;;;;;;;7.47;5.00;;;;;;;15.30;96.47;101996.25;5277420;28;20020;-74
2022/06/11 04:13:52;;;;;;;7.32;4.65;;;;;;;15.23;95.52;101999.88;5277237;28;20032;-73
2022/06/11 04:16:32;;;;;;;7.85;4.18;;;;;;;15.26;95.29;102001.56;5277190;28;20784;-75
2022/06/11 04:19:07;;;;;;;7.95;4.22;;;;;;;15.26;95.57;102002.47;5276936;28;20148;-76
2022/06/11 04:21:38;;;;;;;10.05;5.68;;;;;;;15.25;95.32;102005.09;5277590;28;20339;-75
2022/06/11 04:24:10;;;;;;;5.83;3.70;;;;;;;15.29;94.93;102001.53;5277753;28;20062;-75
2022/06/11 04:26:44;;;;;;;7.43;4.47;;;;;;;15.29;95.04;102004.16;5277412;28;20043;-75
2022/06/11 04:29:18;;;;;;;8.70;4.57;;;;;;;15.30;94.74;102012.03;5277048;28;20021;-76
2022/06/11 04:31:53;;;;;;;8.40;4.28;;;;;;;15.36;95.18;102013.72;5277095;28;20047;-76
2022/06/11 04:34:27;;;;;;;6.50;3.92;;;;;;;15.37;94.59;102023.31;5277003;28;20029;-76
2022/06/11 04:36:59;;;;;;;8.60;4.05;;;;;;;15.40;94.41;102015.41;5277359;28;20493;-76
2022/06/11 04:39:32;;;;;;;6.57;4.57;;;;;;;15.52;94.80;102019.63;5277317;28;20118;-75
2022/06/11 04:42:04;;;;;;;7.57;4.22;;;;;;;15.48;93.88;102020.56;5277105;28;20028;-80
2022/06/11 04:44:36;;;;;;;8.18;4.20;;;;;;;15.52;93.51;102022.25;5277122;28;20028;-76
2022/06/11 04:47:10;;;;;;;7.13;3.97;;;;;;;15.53;93.35;102023.13;5276623;28;20032;-78
2022/06/11 04:49:41;;;;;;;9.75;3.80;;;;;;;15.55;92.64;102024.81;5277053;28;20029;-76
2022/06/11 04:52:13;;;;;;;9.53;3.63;;;;;;;15.60;92.08;102027.38;5276744;28;20032;-76
2022/06/11 04:54:45;;;;;;;7.47;3.80;;;;;;;15.62;92.50;102026.50;5277008;28;20020;-77
2022/06/11 04:57:17;;;;;;;7.20;4.17;;;;;;;15.66;90.65;102033.47;5276515;28;20076;-75
2022/06/11 04:59:49;;;;;;;7.90;4.05;;;;;;;15.72;90.93;102029.00;5277068;28;20274;-77
2022/06/11 05:02:22;;;;;;;8.80;3.78;;;;;;;15.76;90.54;102028.03;5276540;28;20123;-75
2022/06/11 05:04:53;;;;;;;7.03;4.47;;;;;;;15.77;90.01;102024.56;5277005;28;20117;-77
2022/06/11 05:07:24;;;;;;;10.53;3.60;;;;;;;15.84;88.93;102029.72;5276189;28;20032;-79
2022/06/11 05:09:56;;;;;;;9.50;4.00;;;;;;;15.93;88.70;102030.47;5276635;28;20032;-78
2022/06/11 05:12:27;;;;;;;5.77;4.10;;;;;;;16.09;90.30;102026.69;5275622;28;20124;-76
2022/06/11 05:14:59;;;;;;;10.03;4.10;;;;;;;16.08;86.41;102032.84;5276404;28;20073;-78
2022/06/11 05:17:30;;;;;;;7.00;3.60;;;;;;;16.13;86.10;102031.03;5275752;28;20080;-76
2022/06/11 05:20:02;;;;;;;8.07;3.93;;;;;;;16.14;85.50;102039.78;5276378;28;20090;-76
2022/06/11 05:22:34;;;;;;;9.65;4.20;;;;;;;16.12;84.93;102031.91;5276549;28;20377;-75
2022/06/11 05:25:06;;;;;;;9.13;4.70;;;;;;;16.16;84.64;102033.59;5276347;28;20028;-75
2022/06/11 05:27:40;;;;;;;8.85;4.25;;;;;;;16.13;82.19;102035.41;5275875;28;20048;-77
2022/06/11 05:30:25;;;;;;;7.32;4.35;;;;;;;16.20;81.13;102035.28;5275780;28;20032;-75
2022/06/11 05:32:57;;;;;;;10.68;4.50;;;;;;;16.06;77.92;102041.66;5275858;28;20368;-74
2022/06/11 05:35:33;;;;;;;12.00;4.40;;;;;;;16.06;78.66;102041.66;5276270;28;20025;-75
2022/06/11 05:38:08;;;;;;;11.65;4.15;;;;;;;16.11;79.81;102047.72;5257702;28;20772;-77
2022/06/11 05:40:44;;;;;;;10.77;3.80;;;;;;;16.10;77.24;102046.88;5276111;28;20323;-74
2022/06/11 05:43:16;;;;;;;11.95;4.63;;;;;;;16.09;77.32;102041.63;5276375;28;20038;-77
2022/06/11 05:46:13;;;;;;;9.85;4.15;;;;;;;16.06;76.54;102053.06;5276806;28;20032;-73
2022/06/11 05:48:50;;;;;;;11.98;3.58;;;;;;;16.04;75.39;102045.19;5275650;28;20032;-74
2022/06/11 05:51:27;;;;;;;12.00;4.43;;;;;;;16.14;74.37;102056.44;5275862;28;20032;-75
2022/06/11 05:54:01;;;;;;;12.00;3.95;;;;;;;16.32;73.79;102046.50;5276202;28;20021;-77
2022/06/11 05:56:33;;;;;;;14.88;4.22;;;;;;;16.42;72.08;102053.34;5257360;28;20102;-78
2022/06/11 05:59:15;;;;;;;11.88;3.80;;;;;;;16.42;71.94;102050.69;5275595;28;20436;-77
2022/06/11 06:01:47;;;;;;;15.50;4.67;;;;;;;16.40;70.19;102053.41;5276695;28;20381;-75
2022/06/11 06:04:19;;;;;;;11.77;3.88;;;;;;;16.50;71.25;102048.84;5277722;28;20036;-76
2022/06/11 06:06:50;;;;;;;12.90;4.40;;;;;;;16.69;70.42;102051.13;5276588;28;20124;-79
2022/06/11 06:09:21;;;;;;;9.23;4.00;;;;;;;16.90;71.01;102048.13;5275188;28;20897;-78
2022/06/11 06:11:52;;;;;;;13.70;5.23;;;;;;;16.91;68.71;102049.00;5275555;28;20058;-77
2022/06/11 06:14:24;;;;;;;12.77;4.03;;;;;;;16.82;67.05;102050.00;5275839;28;20067;-77
2022/06/11 06:16:56;;;;;;;14.52;4.60;;;;;;;16.81;67.07;102061.44;5275962;28;20061;-77
2022/06/11 06:19:27;;;;;;;11.47;3.83;;;;;;;16.70;67.11;102061.63;5275433;28;20117;-78
2022/06/11 06:21:58;;;;;;;16.80;4.53;;;;;;;16.65;68.25;102060.84;5272497;28;20040;-76
2022/06/11 06:24:31;;;;;;;12.00;4.60;;;;;;;16.62;67.84;102066.16;5276465;28;20108;-77
2022/06/11 06:27:03;;;;;;;13.20;4.05;;;;;;;16.78;67.65;102069.41;5253358;28;20099;-77
2022/06/11 06:29:34;;;;;;;15.07;4.03;;;;;;;16.91;67.76;102070.06;5268561;28;20206;-78
2022/06/11 06:32:06;;;;;;;17.40;4.47;;;;;;;17.01;66.84;102069.00;5275305;28;20036;-80
2022/06/11 06:34:37;;;;;;;17.10;4.87;;;;;;;17.11;66.36;102073.19;5274970;28;20044;-75
2022/06/11 06:37:09;;;;;;;14.17;4.70;;;;;;;17.18;67.18;102070.41;5273680;28;20119;-77
2022/06/11 06:39:40;;;;;;;14.67;4.50;;;;;;;17.26;66.47;102077.28;5275220;28;20150;-75
2022/06/11 06:42:11;;;;;;;12.43;4.43;;;;;;;17.39;66.01;102079.66;5274402;28;20032;-75
2022/06/11 06:44:43;;;;;;;14.73;4.40;;;;;;;17.28;66.53;102082.53;5274099;28;20111;-81
2022/06/11 06:47:14;;;;;;;20.83;5.60;;;;;;;17.40;66.98;102082.25;5275959;28;20090;-79
2022/06/11 06:49:45;;;;;;;20.40;5.93;;;;;;;17.45;67.18;102090.09;5275120;28;20032;-78
2022/06/11 06:52:17;;;;;;;18.23;5.33;;;;;;;17.46;66.88;102082.13;5272993;28;20036;-77
2022/06/11 06:54:49;;;;;;;17.77;5.57;;;;;;;17.39;66.23;102083.19;5275028;28;20032;-76
2022/06/11 06:57:20;;;;;;;21.77;5.45;;;;;;;17.31;66.58;102085.09;5274716;28;20500;-77
2022/06/11 06:59:52;;;;;;;19.23;5.20;;;;;;;17.36;66.51;102083.25;5273707;28;20036;-82
2022/06/11 07:02:24;;;;;;;16.87;5.43;;;;;;;17.52;67.11;102069.72;5275512;28;20036;-82
2022/06/11 07:04:55;;;;;;;18.38;4.70;;;;;;;17.40;67.44;102082.25;5275239;28;20020;-78
2022/06/11 07:07:26;;;;;;;21.23;5.70;;;;;;;17.26;67.27;102079.94;5273558;28;20036;-81
2022/06/11 07:09:58;;;;;;;19.60;4.77;;;;;;;17.33;66.99;102070.13;5274990;28;20032;-79
2022/06/11 07:12:29;;;;;;;15.90;4.57;;;;;;;17.71;67.38;102068.44;5274738;28;20402;-77
2022/06/11 07:15:00;;;;;;;19.97;5.33;;;;;;;17.95;65.71;102068.81;5273660;28;20112;-78
2022/06/11 07:17:37;;;;;;;17.83;5.93;;;;;;;17.78;65.29;102063.91;5274090;28;20097;-79
2022/06/11 07:20:13;;;;;;;16.52;5.40;;;;;;;17.80;66.57;102064.72;5275374;28;20082;-76
2022/06/11 07:22:54;;;;;;;17.25;5.60;;;;;;;17.86;65.89;102073.38;5273498;28;20409;-88
2022/06/11 07:25:26;;;;;;;17.90;5.03;;;;;;;18.06;65.93;102066.78;5277417;28;20060;-85
2022/06/11 07:28:03;;;;;;;19.27;5.68;;;;;;;18.58;65.67;102076.06;5275291;28;20036;-84
2022/06/11 07:30:39;;;;;;;18.67;5.88;;;;;;;18.46;64.43;102084.28;5254811;28;20036;-85
2022/06/11 07:33:15;;;;;;;21.40;6.05;;;;;;;18.46;64.30;102075.50;5254989;28;20492;-81
2022/06/11 07:35:48;;;;;;;21.92;5.65;;;;;;;18.64;64.87;102087.38;5256729;28;20037;-77
2022/06/11 07:38:21;;;;;;;15.65;5.10;;;;;;;18.66;63.82;102088.19;5259085;28;20083;-82
2022/06/11 07:40:52;;;;;;;22.33;6.53;;;;;;;18.53;64.66;102099.09;5258541;28;20029;-85
2022/06/11 07:43:25;;;;;;;17.83;4.60;;;;;;;18.54;64.28;102090.25;5258984;28;20020;-80
2022/06/11 07:45:56;;;;;;;19.85;6.18;;;;;;;18.91;63.93;102099.03;5259787;28;20029;-87
2022/06/11 07:48:27;;;;;;;15.37;6.67;;;;;;;19.03;64.43;102087.25;5244322;28;20037;-86
2022/06/11 07:50:59;;;;;;;16.33;4.87;;;;;;;19.25;64.00;102088.38;5258122;28;20428;-84
2022/06/11 07:53:30;;;;;;;19.00;5.80;;;;;;;19.10;62.30;102086.19;5261215;28;20025;-84
2022/06/11 07:56:01;;;;;;;20.27;5.67;;;;;;;18.97;62.00;102082.16;5258033;28;20029;-83
2022/06/11 07:58:33;;;;;;;21.50;6.60;;;;;;;18.87;63.53;102081.50;5258531;28;20028;-80
2022/06/11 08:01:07;;;;;;;13.57;5.30;;;;;;;18.97;62.59;102087.44;5258750;28;20494;-83
2022/06/11 08:03:39;;;;;;;18.73;5.55;;;;;;;19.06;62.67;102090.69;5258069;28;20039;-81
2022/06/11 08:06:10;;;;;;;16.00;5.90;;;;;;;18.83;62.92;102103.63;5257891;28;20342;-82
2022/06/11 08:08:45;;;;;;;18.98;5.45;;;;;;;18.81;65.74;102098.38;5258317;28;20040;-84
2022/06/11 08:11:16;;;;;;;21.35;6.28;;;;;;;18.89;64.83;102098.22;5257150;28;20478;-79
2022/06/11 08:13:48;;;;;;;17.95;5.95;;;;;;;19.29;62.83;102092.69;5257524;28;20272;-82
2022/06/11 08:16:19;;;;;;;16.77;5.70;;;;;;;19.33;61.17;102111.09;5257360;28;20087;-81
2022/06/11 08:18:51;;;;;;;22.67;6.23;;;;;;;19.48;61.10;102106.25;5257047;28;20049;-78
2022/06/11 08:21:22;;;;;;;17.92;5.50;;;;;;;19.67;61.54;102105.69;5257173;28;20020;-79
2022/06/11 08:23:54;;;;;;;21.37;5.60;;;;;;;19.82;61.26;102104.41;5257788;28;20040;-82
2022/06/11 08:26:25;;;;;;;25.63;7.27;;;;;;;19.87;59.50;102102.47;5257088;28;20470;-81
2022/06/11 08:28:56;;;;;;;17.50;5.50;;;;;;;19.91;61.31;102111.19;5257124;28;20029;-84
2022/06/11 08:31:28;;;;;;;19.27;5.40;;;;;;;19.72;59.60;102108.19;5257543;28;20473;-80
2022/06/11 08:34:00;;;;;;;21.33;6.68;;;;;;;19.31;59.91;102114.66;5257269;28;20035;-79
2022/06/11 08:36:31;;;;;;;24.27;6.67;;;;;;;19.34;60.49;102115.50;5257174;28;20033;-80
2022/06/11 08:39:03;;;;;;;22.17;7.50;;;;;;;19.55;60.93;102116.66;5257914;28;20440;-85
2022/06/11 08:41:35;;;;;;;23.77;7.23;;;;;;;20.30;60.49;102109.06;5257437;28;20051;-83
2022/06/11 08:44:12;;;;;;;20.90;6.55;;;;;;;20.77;57.73;102106.63;5257950;28;20041;-87
2022/06/11 08:46:48;;;;;;;18.23;6.50;;;;;;;20.83;57.86;102113.47;5256813;28;20112;-80
2022/06/11 08:49:43;;;;;;;18.52;6.28;;;;;;;21.49;59.06;102112.91;5256693;28;20063;-84
2022/06/11 08:52:23;;;;;;;19.92;6.80;;;;;;;21.65;56.92;102111.44;5238528;28;20044;-85
2022/06/11 08:54:57;;;;;;;21.20;5.90;;;;;;;21.46;50.17;102102.38;5257096;28;20028;-79
2022/06/11 08:57:43;;;;;;;17.23;5.78;;;;;;;21.43;50.96;102110.47;5256961;28;20108;-82
2022/06/11 09:00:25;;;;;;;17.70;4.93;;;;;;;21.02;50.92;102113.69;5257953;28;20021;-79
2022/06/11 09:03:05;;;;;;;18.60;4.93;;;;;;;20.94;52.14;102108.66;5258392;28;20040;-88
2022/06/11 09:05:58;;;;;;;24.00;5.60;;;;;;;20.94;54.34;102121.06;5209976;23;20537;-82
2022/06/11 09:08:58;;;;;;;20.85;5.93;;;;;;;20.90;54.35;102112.38;5259050;28;20113;-80
2022/06/11 09:11:42;;;;;;;19.35;6.40;;;;;;;20.63;55.39;102111.50;5265327;28;20057;-79
2022/06/11 09:14:45;;;;;;;20.35;5.07;;;;;;;21.08;52.74;102116.16;5202653;28;20114;-78
2022/06/11 09:17:39;;;;;;;17.42;5.20;;;;;;;20.87;54.25;102114.25;5195224;28;20093;-78
2022/06/11 09:20:44;;;;;;;19.58;7.28;;;;;;;21.05;54.65;102108.28;5200715;28;20034;-80
2022/06/11 09:23:43;;;;;;;16.85;5.40;;;;;;;21.27;53.86;102110.19;5270595;28;20030;-83
2022/06/11 09:26:48;;;;;;;22.38;6.97;;;;;;;20.83;53.79;102115.28;5197901;28;20028;-79
2022/06/11 09:29:31;;;;;;;17.92;5.32;;;;;;;20.64;55.55;102115.91;5196131;28;20049;-86
2022/06/11 09:32:14;;;;;;;20.15;5.85;;;;;;;20.91;55.07;102113.22;5192332;28;20360;-88
2022/06/11 09:34:51;;;;;;;18.15;5.25;;;;;;;20.75;53.55;102108.47;5193905;28;20092;-87
2022/06/11 09:37:36;;;;;;;17.05;5.05;;;;;;;20.41;54.03;102116.63;5191985;28;20482;-88
2022/06/11 09:40:25;;;;;;;23.00;6.80;;;;;;;20.35;53.84;102108.88;5192268;28;20464;-87
2022/06/11 09:43:12;;;;;;;14.77;4.88;;;;;;;20.71;54.40;102112.13;5192206;28;20175;-88
2022/06/11 09:45:56;;;;;;;17.58;5.28;;;;;;;21.30;57.30;102099.47;5192071;28;20026;-87
2022/06/11 09:48:37;;;;;;;24.50;5.95;;;;;;;21.49;53.96;102107.59;5260274;28;20145;-82
2022/06/11 09:51:18;;;;;;;20.05;6.47;;;;;;;21.56;53.76;102105.59;5259703;28;20029;-80
2022/06/11 09:54:10;;;;;;;17.00;5.63;;;;;;;21.84;53.17;102113.38;5193498;28;20109;-83
2022/06/11 09:57:02;;;;;;;22.90;6.10;;;;;;;21.77;53.25;102107.44;5191651;28;20428;-80
2022/06/11 09:59:42;;;;;;;21.45;6.38;;;;;;;21.71;53.35;102112.97;5192132;28;20035;-79
2022/06/11 10:02:27;;;;;;;21.23;6.68;;;;;;;21.65;52.20;102106.13;5191229;28;20113;-84
2022/06/11 10:05:03;;;;;;;15.80;5.32;;;;;;;22.42;55.30;102104.00;5191226;28;20046;-82
2022/06/11 10:07:47;;;;;;;14.85;4.72;;;;;;;22.83;51.16;102098.69;5190018;28;20038;-84
2022/06/11 10:10:33;;;;;;;22.30;6.38;;;;;;;23.83;47.99;102104.88;5257458;28;20046;-78
2022/06/11 10:13:32;;;;;;;14.70;4.80;;;;;;;23.32;45.55;102111.66;5190540;28;20034;-83
2022/06/11 10:16:33;;;;;;;15.38;5.25;;;;;;;22.55;45.95;102107.88;5191129;28;20432;-84
2022/06/11 10:19:32;;;;;;;14.10;4.20;;;;;;;22.25;46.66;102102.88;5210866;28;20046;-80
2022/06/11 10:22:16;;;;;;;16.10;4.80;;;;;;;22.18;46.14;102112.00;5217860;28;20802;-83
2022/06/11 10:25:02;;;;;;;18.52;5.28;;;;;;;22.60;46.48;102107.69;5221767;28;20593;-78
2022/06/11 10:27:40;;;;;;;16.02;5.38;;;;;;;22.36;45.48;102110.41;5227307;28;20124;-84
2022/06/11 10:30:24;;;;;;;16.58;5.25;;;;;;;23.05;45.65;102115.44;5233425;28;20052;-89
2022/06/11 10:32:57;;;;;;;14.55;4.65;;;;;;;23.73;44.23;102109.75;5222117;28;20146;-80
2022/06/11 10:35:32;;;;;;;14.68;4.63;;;;;;;24.86;43.60;102113.09;5210790;28;20079;-78
2022/06/11 10:38:37;;;;;;;22.25;6.10;;;;;;;24.73;41.74;102109.34;5209210;28;20184;-80
2022/06/11 10:41:19;;;;;;;20.35;5.70;;;;;;;24.72;40.40;102116.47;5148859;29;20055;-79
2022/06/11 10:44:03;;;;;;;14.32;4.60;;;;;;;25.12;39.75;102114.38;5168430;28;20050;-79
2022/06/11 10:46:37;;;;;;;15.25;4.53;;;;;;;25.91;38.39;102117.28;5156588;29;20047;-78
2022/06/11 10:49:22;;;;;;;17.13;4.82;;;;;;;25.31;39.29;102116.09;5152224;29;20634;-77
2022/06/11 10:52:01;;;;;;;14.38;4.60;;;;;;;25.05;36.94;102109.44;5164197;28;20126;-82
2022/06/11 10:54:32;;;;;;;13.90;4.68;;;;;;;25.91;38.56;102095.91;5169182;28;20073;-79
2022/06/11 10:57:13;;;;;;;20.35;5.20;;;;;;;25.94;37.49;102111.75;5227207;28;20065;-79
2022/06/11 11:00:10;;;;;;;17.40;4.03;;;;;;;26.48;38.06;102105.97;5230759;28;20177;-78
2022/06/11 11:03:00;;;;;;;15.27;4.70;;;;;;;27.49;35.92;102101.63;5230169;28;20044;-79
2022/06/11 11:05:46;;;;;;;17.25;6.43;;;;;;;26.86;35.65;102109.06;5230805;28;20834;-78
2022/06/11 11:08:18;;;;;;;16.15;4.93;;;;;;;27.61;35.56;102116.03;5229936;28;20131;-78
2022/06/11 11:10:52;;;;;;;16.33;5.20;;;;;;;27.47;35.48;102098.19;5218969;28;20061;-77
2022/06/11 11:13:32;;;;;;;17.40;5.60;;;;;;;27.87;34.99;102098.31;5223387;28;20087;-80
2022/06/11 11:16:07;;;;;;;16.30;5.65;;;;;;;27.37;33.62;102107.75;5222972;28;20026;-77
2022/06/11 11:18:53;;;;;;;13.18;4.47;;;;;;;26.71;35.66;102100.16;5203770;28;20049;-77
2022/06/11 11:21:34;;;;;;;13.48;5.45;;;;;;;27.25;38.05;102093.31;5201964;28;20045;-77
2022/06/11 11:24:15;;;;;;;13.70;4.60;;;;;;;27.78;35.21;102093.53;5202422;28;20026;-78
2022/06/11 11:27:02;;;;;;;18.80;6.05;;;;;;;26.78;37.28;102095.28;5203688;28;20026;-77
2022/06/11 11:29:33;;;;;;;17.17;5.47;;;;;;;26.15;38.74;102086.50;5273254;28;20714;-78
2022/06/11 11:32:37;;;;;;;14.27;5.13;;;;;;;26.46;39.21;102090.03;5212915;28;20040;-77
2022/06/11 11:35:19;;;;;;;14.75;5.75;;;;;;;26.32;39.17;102081.97;5206884;28;20102;-80
2022/06/11 11:37:59;;;;;;;18.33;6.53;;;;;;;26.12;38.86;102081.31;5202499;28;20033;-79
2022/06/11 11:40:34;;;;;;;17.67;5.18;;;;;;;27.22;37.83;102083.63;5202385;28;20049;-80
2022/06/11 11:43:10;;;;;;;15.65;6.15;;;;;;;26.82;39.67;102090.59;5200019;28;20129;-78
2022/06/11 11:45:45;;;;;;;14.55;5.30;;;;;;;27.83;39.83;102086.91;5199193;28;20026;-77
2022/06/11 11:48:27;;;;;;;18.30;5.70;;;;;;;27.11;37.91;102087.00;5200627;28;20027;-79
2022/06/11 11:51:05;;;;;;;17.85;6.13;;;;;;;26.17;40.86;102076.56;5214447;28;20042;-78
2022/06/11 11:53:48;;;;;;;17.73;5.68;;;;;;;26.28;39.05;102075.09;5213133;28;20490;-77
2022/06/11 11:56:43;;;;;;;18.98;5.43;;;;;;;25.87;38.89;102086.31;5213518;28;20030;-78
2022/06/11 11:59:20;;;;;;;18.73;6.00;;;;;;;25.85;39.75;102081.06;5212816;28;20030;-78
2022/06/11 12:02:04;;;;;;;13.65;4.55;;;;;;;26.06;37.41;102079.00;5194514;28;20121;-77
2022/06/11 12:04:44;;;;;;;13.00;5.90;;;;;;;25.28;39.34;102089.56;5191887;28;20050;-78
2022/06/11 12:07:18;;;;;;;18.48;6.35;;;;;;;25.99;39.68;102083.00;5191216;28;20155;-77
2022/06/11 12:09:55;;;;;;;16.17;5.63;;;;;;;25.58;41.16;102067.47;5192242;28;20433;-77
2022/06/11 12:12:34;;;;;;;17.30;5.68;;;;;;;25.64;40.14;102073.31;5191979;28;20035;-78